Accueil
METAR-TAF:

METAR-TAF

Aéroports :

Jefferson City Memorial Airport

Jefferson City, Missouri, États-Unis

latitude: 38-35-40N, longitude: 092-09-21W, altitude: 167 m

Observation

Le bulletin a été fait il y a 50 minutes, à 21:53 UTC
Vent 13 kt de sud-est avec des rafales jusqu'à 20 kt
Température 19°C
Humidité 34%
Pression 1014 hPa
Visibilité: 16.1 km
Ciel clair

METAR: KJEF 202153Z 14013G20KT 10SM CLR 19/03 A2995 RMK AO2 SLP133 T01890033

Heure: 16:43 (22:43 UTC)


TAF: absent

Observations et prévisions météorologiques de plus de 4000 aéroports (messages METAR et TAF).

Les stations disponibles sont représentées par des disques jaunes et rouges sur la carte.

Passer la souris dessus pour voir le nom de la station.

Cliquer dessus pour voir les observations et prévisions météorologiques.

Pour changer de carte: cliquez sur les boutons verts avec une croix noire pour zoomer, sur le bouton vert avec un tiret pour effectuer un zoom arrière, ou sur les flèches vertes pour les cartes adjacentes.


METAR-TAF: